Terminal Aerodrome Forecast
Issued by NWS Shreveport, LA

Home | Current Version | Previous Version | Text Only | Print | Product List | Glossary On
Versions: 1 2 3 4 5 6 7 8 9 10 11 12 13 14 15 16 17
000
FTUS44 KSHV 262300 RRA
TAFSHV
TAF
KSHV 262353Z 2700/2724 14010KT P6SM OVC007
      TEMPO 2700/2702 5SM -RA BR BKN007 OVC010
     FM270200 13009KT 4SM BR VCSH OVC005
     FM270800 16007KT 2SM -SHRA BR OVC004
     FM271100 15005KT 1SM -RA BR OVC003
     FM271300 17006KT 3/4SM SHRA BR OVC003
     FM271700 24006KT 3SM -RA BR OVC003
     FM271900 30007KT 6SM BR OVC007
     FM272200 33007KT P6SM OVC015=

USA.gov is the U.S. government's official web portal to all federal, state and local government web resources and services.